Prentice, WI (54556)

5:28 AM CDT on July 24, 2016 (GMT -0500)
3 Mile Corner | | Change Station

Elev 1539 ft 45.64 °N, 90.39 °W | Updated 5 seconds ago

Light Thunderstorms and Rain
Light Thunderstorm Rain
67.2 °F
Feels Like 67.2 °F
N
4.0
Wind Variable Wind from SSE
Gusts 15.0 mph

Today
High -- | Low -- °F
--% Chance of Precip.
Yesterday
High -- | Low -- °F
Precip. -- in
Pressure 29.83 in
Visibility 1.8 miles
Clouds Mostly Cloudy 600 ft
Mostly Cloudy 2400 ft
Overcast 9500 ft
Dew Point 65 °F
Humidity 93%
Rainfall 0.33 in
Snow Depth Not available.
5:36 AM 8:38 PM
Waning Gibbous, 77% visible
METAR KPBH 241015Z AUTO 20004KT 1 3/4SM -TSRA BKN006 BKN024 OVC095 20/20 A2983 RMK AO2 LTG DSNT ALQS P0012 T01980198
Pressure 29.83 in
Visibility 1.8 miles
Clouds Mostly Cloudy 600 ft
Mostly Cloudy 2400 ft
Overcast 9500 ft
Dew Point 65 °F
Humidity 93%
Rainfall 0.33 in
Snow Depth Not available.
5:36 AM 8:38 PM
Waning Gibbous, 77% visible
METAR KPBH 241015Z AUTO 20004KT 1 3/4SM -TSRA BKN006 BKN024 OVC095 20/20 A2983 RMK AO2 LTG DSNT ALQS P0012 T01980198

10-Day Weather Forecast

Almanac

Astronomy

Jul. 24, 2016 Rise Set
Actual Time
Civil Twilight
Nautical Twilight
Astronomical Twilight
Moon
Length of Visible Light
Length of Day
Tomorrow will be .
, % of the Moon is Illuminated

Today's Extremes

State Highs State Lows

Community

WunderPhotos

Upload Photos

1,927,039 photos uploaded!

WunderBlog® & News

Nearby

Air Quality

  Air Quality AQ Index Pollutant
Not available.

Snow Depth

Station Depth Elevation

Earthquake Activity

City Distance Mag. Time & Date
Minimum magnitude displayed is 2.5.

Coastal Water Temperatures

Place Temperature

Stations

Nearby Weather Stations

Station Location Temp. Windchill Dew Point Humidity Wind Precip. Elev Updated Type
                   

Watches & Warnings

There are currently no watches in effect.